createdAt,value
2019-05-20T00:08:19.162Z,10.44
2019-05-20T00:13:24.099Z,10.41
2019-05-20T00:18:29.021Z,10.36
2019-05-20T00:23:33.756Z,10.31
2019-05-20T00:28:38.516Z,10.27
2019-05-20T00:33:43.169Z,10.26
2019-05-20T00:39:06.715Z,10.26
2019-05-20T00:44:11.674Z,10.18
2019-05-20T00:49:16.802Z,10.13
2019-05-20T00:54:21.610Z,10.14
2019-05-20T00:59:26.484Z,10.15
2019-05-20T01:04:31.605Z,10.00
2019-05-20T01:09:36.663Z,10.06
2019-05-20T01:14:41.388Z,10.08
2019-05-20T01:19:46.086Z,10.16
2019-05-20T01:24:51.649Z,10.19
2019-05-20T01:29:56.697Z,10.19
2019-05-20T01:35:01.328Z,10.23
2019-05-20T01:40:07.093Z,10.23
2019-05-20T01:45:11.959Z,10.17
2019-05-20T01:50:16.730Z,10.12
2019-05-20T01:55:21.408Z,10.03
2019-05-20T02:00:26.120Z,9.88
2019-05-20T02:05:31.948Z,9.74
2019-05-20T02:10:36.749Z,9.64
2019-05-20T02:15:48.358Z,9.42
2019-05-20T02:20:53.159Z,9.16
2019-05-20T02:25:57.830Z,8.98
2019-05-20T02:31:02.830Z,8.96
2019-05-20T02:36:07.557Z,8.92
2019-05-20T02:41:12.228Z,8.83
2019-05-20T02:46:17.259Z,8.74
2019-05-20T02:51:31.423Z,8.80
2019-05-20T02:56:36.241Z,8.74
2019-05-20T03:01:40.890Z,8.63
2019-05-20T03:06:45.673Z,8.60
2019-05-20T03:11:50.600Z,8.56
2019-05-20T03:16:55.274Z,8.56
2019-05-20T03:21:59.920Z,8.53
2019-05-20T03:27:04.618Z,8.49
2019-05-20T03:32:09.751Z,8.40
2019-05-20T03:37:15.031Z,8.46
2019-05-20T03:42:20.404Z,8.48
2019-05-20T03:47:26.159Z,8.52
2019-05-20T03:52:31.393Z,8.61
2019-05-20T03:57:36.118Z,8.82
2019-05-20T04:02:40.875Z,8.99
2019-05-20T04:07:45.595Z,9.27
2019-05-20T04:12:50.266Z,9.27
2019-05-20T04:17:55.064Z,9.11
2019-05-20T04:22:59.710Z,8.88
2019-05-20T04:28:06.207Z,8.83
2019-05-20T04:33:10.961Z,8.72
2019-05-20T04:38:16.438Z,8.67
2019-05-20T04:43:21.300Z,8.61
2019-05-20T04:48:26.412Z,8.61
2019-05-20T04:53:32.371Z,8.61
2019-05-20T04:58:37.624Z,8.61
2019-05-20T05:03:42.685Z,8.60
2019-05-20T05:08:47.495Z,8.78
2019-05-20T05:13:53.969Z,8.95
2019-05-20T05:18:58.679Z,9.19
2019-05-20T05:24:03.385Z,9.45
2019-05-20T05:29:08.218Z,9.72
2019-05-20T05:34:12.889Z,9.96
2019-05-20T05:39:17.980Z,10.23
2019-05-20T05:44:23.384Z,10.56
2019-05-20T05:49:28.858Z,10.84
2019-05-20T05:54:34.242Z,10.98
2019-05-20T05:59:39.014Z,11.06
2019-05-20T06:04:44.323Z,11.16
2019-05-20T06:09:49.408Z,11.32
2019-05-20T06:14:54.475Z,11.36
2019-05-20T06:19:59.253Z,11.47
2019-05-20T06:25:04.155Z,11.78
2019-05-20T06:30:11.398Z,11.90
2019-05-20T06:35:16.564Z,11.92
2019-05-20T06:40:22.318Z,11.99
2019-05-20T06:45:27.009Z,12.00
2019-05-20T06:50:31.838Z,12.23
2019-05-20T06:55:36.779Z,12.26
2019-05-20T07:00:41.879Z,12.87
2019-05-20T07:05:46.914Z,13.47
2019-05-20T07:10:51.999Z,13.51
2019-05-20T07:15:56.771Z,13.17
2019-05-20T07:21:01.851Z,12.95
2019-05-20T07:26:06.743Z,13.00
2019-05-20T07:31:12.057Z,13.28
2019-05-20T07:36:29.543Z,13.40
2019-05-20T07:55:01.226Z,13.41
2019-05-20T08:00:06.863Z,13.58
2019-05-20T08:05:11.846Z,13.66
2019-05-20T08:10:16.968Z,13.78
2019-05-20T08:15:21.726Z,13.95
2019-05-20T08:20:26.465Z,13.99
2019-05-20T08:25:31.538Z,13.98
2019-05-20T08:30:37.705Z,14.11
2019-05-20T08:35:43.334Z,14.01
2019-05-20T08:40:48.906Z,14.21
2019-05-20T08:45:55.283Z,14.32
2019-05-20T08:51:00.043Z,14.90
2019-05-20T08:56:05.142Z,15.20
2019-05-20T09:01:12.211Z,15.79
2019-05-20T09:06:20.634Z,17.28
2019-05-20T09:11:24.251Z,18.88
2019-05-20T09:16:29.872Z,19.54
2019-05-20T09:21:34.933Z,20.29
2019-05-20T09:26:39.872Z,20.83
2019-05-20T09:31:45.209Z,20.80
2019-05-20T09:36:50.739Z,20.93
2019-05-20T09:41:55.869Z,21.89
2019-05-20T09:47:01.184Z,22.07
2019-05-20T09:52:06.342Z,21.73
2019-05-20T09:57:11.298Z,22.20
2019-05-20T10:02:16.429Z,22.59
2019-05-20T10:07:22.359Z,23.03
2019-05-20T10:12:44.596Z,23.14
2019-05-20T10:17:34.150Z,22.28
2019-05-20T10:22:39.239Z,21.65
2019-05-20T10:27:43.903Z,22.12
2019-05-20T10:32:48.813Z,23.29
2019-05-20T10:37:53.788Z,23.28
2019-05-20T10:42:58.818Z,22.54
2019-05-20T10:48:03.713Z,22.04
2019-05-20T10:53:08.511Z,21.32
2019-05-20T10:58:13.245Z,19.99
2019-05-20T11:03:18.019Z,18.56
2019-05-20T11:08:22.741Z,17.84
2019-05-20T11:13:27.410Z,17.85
2019-05-20T11:18:32.300Z,18.81
2019-05-20T11:23:37.280Z,21.05
2019-05-20T11:28:42.215Z,19.27
2019-05-20T11:33:46.950Z,18.45
2019-05-20T11:38:51.767Z,20.20
2019-05-20T11:43:56.812Z,19.74
2019-05-20T11:49:01.539Z,19.82
2019-05-20T11:54:06.347Z,18.83
2019-05-20T11:59:11.247Z,18.43
2019-05-20T12:04:16.239Z,18.34
2019-05-20T12:09:20.969Z,18.33
2019-05-20T12:14:25.997Z,18.53
2019-05-20T12:19:30.799Z,18.71
2019-05-20T12:24:35.857Z,18.78
2019-05-20T12:29:40.933Z,19.43
2019-05-20T12:34:45.543Z,19.45
2019-05-20T12:40:05.849Z,19.26
2019-05-20T12:44:57.035Z,19.64
2019-05-20T12:50:01.956Z,19.11
2019-05-20T12:55:09.497Z,19.77
2019-05-20T13:00:14.893Z,20.14
2019-05-20T13:05:21.451Z,20.78
2019-05-20T13:10:31.369Z,20.74
2019-05-20T13:15:33.467Z,20.86
2019-05-20T13:20:38.234Z,20.33
2019-05-20T13:25:42.931Z,20.43
2019-05-20T13:30:48.006Z,20.65
2019-05-20T13:35:52.987Z,19.82
2019-05-20T13:40:57.743Z,19.69
2019-05-20T13:46:02.579Z,20.24
2019-05-20T13:51:07.398Z,20.39
2019-05-20T13:56:12.222Z,19.38
2019-05-20T14:01:17.299Z,20.02
2019-05-20T14:06:22.496Z,19.42
2019-05-20T14:11:34.630Z,19.65
2019-05-20T14:16:33.763Z,19.19
2019-05-20T14:21:38.654Z,18.83
2019-05-20T14:26:44.031Z,19.48
2019-05-20T14:31:49.258Z,19.04
2019-05-20T14:36:53.992Z,19.26
2019-05-20T14:41:58.939Z,19.00
2019-05-20T14:47:03.734Z,18.41
2019-05-20T14:52:08.449Z,18.52
2019-05-20T14:57:13.222Z,18.23
2019-05-20T15:02:18.091Z,18.12
2019-05-20T15:07:29.867Z,17.93
2019-05-20T15:12:29.323Z,17.53
2019-05-20T15:17:34.049Z,17.09
2019-05-20T15:22:38.878Z,16.73
2019-05-20T15:27:43.752Z,16.60
2019-05-20T15:32:48.554Z,16.38
2019-05-20T15:37:53.309Z,16.41
2019-05-20T15:42:58.308Z,16.42
2019-05-20T15:48:03.075Z,16.19
2019-05-20T15:53:11.221Z,16.19
2019-05-20T15:58:14.329Z,16.01
2019-05-20T16:03:19.125Z,15.83
2019-05-20T16:08:23.860Z,15.72
2019-05-20T16:13:28.759Z,15.88
2019-05-20T16:18:33.634Z,15.82
2019-05-20T16:23:38.691Z,15.69
2019-05-20T16:28:43.607Z,15.46
2019-05-20T16:33:48.434Z,15.42
2019-05-20T16:38:53.291Z,15.15
2019-05-20T16:43:58.411Z,15.14
2019-05-20T16:49:03.211Z,15.20
2019-05-20T16:54:08.049Z,15.07
2019-05-20T16:59:13.048Z,15.14
2019-05-20T17:04:17.906Z,14.91
2019-05-20T17:09:22.573Z,14.82
2019-05-20T17:14:27.423Z,14.70
2019-05-20T17:19:32.270Z,14.64
2019-05-20T17:24:37.199Z,14.67
2019-05-20T17:29:41.859Z,14.79
2019-05-20T17:34:46.558Z,14.57
2019-05-20T17:39:51.269Z,14.56
2019-05-20T17:44:56.342Z,14.40
2019-05-20T17:50:01.222Z,14.15
2019-05-20T17:55:06.262Z,14.29
2019-05-20T18:00:15.874Z,14.37
2019-05-20T18:05:20.816Z,14.22
2019-05-20T18:10:25.833Z,14.11
2019-05-20T18:15:30.622Z,13.94
2019-05-20T18:20:35.355Z,13.76
2019-05-20T18:25:40.181Z,13.75
2019-05-20T18:30:44.984Z,13.81
2019-05-20T18:35:49.767Z,13.83
2019-05-20T18:40:54.631Z,13.77
2019-05-20T18:45:59.420Z,13.65
2019-05-20T18:51:04.388Z,13.61
2019-05-20T18:56:09.407Z,13.52
2019-05-20T19:01:14.189Z,13.45
2019-05-20T19:06:19.023Z,13.35
2019-05-20T19:11:23.875Z,13.20
2019-05-20T19:16:28.709Z,13.10
2019-05-20T19:21:33.712Z,12.96
2019-05-20T19:26:38.554Z,12.77
2019-05-20T19:31:43.450Z,12.65
2019-05-20T19:36:48.305Z,12.47
2019-05-20T19:41:53.187Z,12.47
2019-05-20T19:46:58.012Z,12.34
2019-05-20T19:52:02.947Z,12.30
2019-05-20T19:57:07.809Z,12.20
2019-05-20T20:02:17.399Z,12.03
2019-05-20T20:07:19.418Z,11.88
2019-05-20T20:12:24.463Z,11.81
2019-05-20T20:17:29.267Z,11.77
2019-05-20T20:22:34.050Z,11.73
2019-05-20T20:27:38.975Z,11.75
2019-05-20T20:32:43.918Z,11.73
2019-05-20T20:37:48.596Z,11.59
2019-05-20T20:42:53.398Z,11.58
2019-05-20T20:47:58.186Z,11.50
2019-05-20T20:53:03.053Z,11.44
2019-05-20T20:58:07.835Z,11.28
2019-05-20T21:03:12.710Z,11.08
2019-05-20T21:08:17.651Z,10.88
2019-05-20T21:13:22.479Z,10.68
2019-05-20T21:18:27.194Z,10.69
2019-05-20T21:23:31.984Z,10.65
2019-05-20T21:28:36.725Z,10.59
2019-05-20T21:33:41.433Z,10.43
2019-05-20T21:38:46.531Z,10.39
2019-05-20T21:43:51.423Z,10.59
2019-05-20T21:48:56.351Z,10.66
2019-05-20T21:54:01.115Z,10.63
2019-05-20T21:59:05.918Z,10.66
2019-05-20T22:04:10.619Z,10.70
2019-05-20T22:09:15.478Z,10.69
2019-05-20T22:14:20.115Z,10.54
2019-05-20T22:19:24.950Z,10.39
2019-05-20T22:24:29.782Z,10.11
2019-05-20T22:29:34.529Z,10.12
2019-05-20T22:34:51.465Z,10.04
2019-05-20T22:39:45.767Z,9.92
2019-05-20T22:44:50.528Z,9.79
2019-05-20T22:49:55.368Z,9.75
2019-05-20T22:55:00.123Z,9.95
2019-05-20T23:00:05.560Z,10.13
2019-05-20T23:05:10.473Z,10.17
2019-05-20T23:10:16.283Z,10.17
2019-05-20T23:15:20.958Z,10.15
2019-05-20T23:20:25.668Z,10.03
2019-05-20T23:25:30.324Z,9.92
2019-05-20T23:30:35.097Z,9.96
2019-05-20T23:35:39.831Z,9.96
2019-05-20T23:40:44.628Z,10.01
2019-05-20T23:45:49.324Z,9.99
2019-05-20T23:50:54.094Z,9.77
2019-05-20T23:55:58.814Z,9.61
